Time;durP1;ratioP1;P1;durP2;ratioP2;P2;SDS_P1;SDS_P2;PMS_P1;PMS_P2;Temp;Humidity;BMP_temperature;BMP_pressure;BME280_temperature;BME280_humidity;BME280_pressure;Samples;Min_cycle;Max_cycle;Signal;HPM_P1;HPM_P2
2022/04/04 00:02:10;;;;;;;7.63;2.70;;;0.50;92.70;;;-1.54;66.14;100455.13;10402731;28;96781;-77
2022/04/04 00:07:13;;;;;;;5.83;3.00;;;0.50;92.60;;;-1.56;66.40;100449.16;10387948;28;96597;-76
2022/04/04 00:12:17;;;;;;;6.60;2.73;;;0.50;92.70;;;-1.57;67.15;100454.44;10376464;28;96401;-76
2022/04/04 00:17:20;;;;;;;5.37;2.90;;;0.50;92.80;;;-1.60;66.38;100452.00;10379975;28;96742;-78
2022/04/04 00:22:23;;;;;;;5.47;2.57;;;0.50;92.60;;;-1.64;66.61;100461.75;10392224;28;97197;-77
2022/04/04 00:27:26;;;;;;;5.07;2.87;;;0.50;92.80;;;-1.69;66.25;100464.59;10368946;28;96547;-77
2022/04/04 00:32:29;;;;;;;6.57;3.10;;;0.40;92.90;;;-1.72;67.01;100466.53;10384706;28;97333;-77
2022/04/04 00:37:34;;;;;;;4.97;2.60;;;0.40;92.90;;;-1.75;66.77;100472.75;10375073;28;96573;-77
2022/04/04 00:42:39;;;;;;;6.67;3.00;;;0.30;93.50;;;-1.78;66.76;100474.69;10383016;28;97465;-77
2022/04/04 00:47:42;;;;;;;3.37;2.43;;;0.30;92.90;;;-1.81;66.34;100464.44;10377638;28;96620;-77
2022/04/04 00:52:45;;;;;;;6.37;3.43;;;0.30;93.00;;;-1.83;66.91;100464.50;10375742;28;96686;-77
2022/04/04 00:57:48;;;;;;;6.40;2.70;;;0.20;93.50;;;-1.84;66.37;100464.59;10389895;28;96497;-76
2022/04/04 01:02:51;;;;;;;4.07;2.67;;;0.20;92.90;;;-1.85;66.24;100466.38;10354243;28;96641;-76
2022/04/04 01:07:55;;;;;;;5.80;2.80;;;0.20;92.90;;;-1.88;67.19;100451.72;10392410;28;97304;-78
2022/04/04 01:12:57;;;;;;;12.47;3.97;;;0.20;93.60;;;-1.89;66.86;100452.66;10376613;28;96557;-78
2022/04/04 01:18:00;;;;;;;5.83;3.07;;;0.10;93.40;;;-1.90;66.32;100461.41;10359852;28;96587;-78
2022/04/04 01:23:05;;;;;;;4.83;2.80;;;0.10;93.00;;;-1.91;66.39;100470.16;10390357;28;96594;-78
2022/04/04 01:28:08;;;;;;;4.80;2.97;;;0.10;93.30;;;-1.90;67.27;100463.16;10356695;28;96714;-78
2022/04/04 01:33:12;;;;;;;4.50;2.43;;;0.10;93.50;;;-1.92;67.67;100460.66;10415232;28;96581;-78
2022/04/04 01:38:15;;;;;;;5.47;2.70;;;0.10;94.20;;;-1.92;67.29;100467.59;10406476;28;96621;-78
2022/04/04 01:43:18;;;;;;;4.27;2.53;;;0.10;93.40;;;-1.91;66.63;100459.72;10390131;28;96447;-77
2022/04/04 01:48:21;;;;;;;6.33;2.47;;;0.10;93.20;;;-1.90;66.35;100479.63;10387395;28;96622;-78
2022/04/04 01:53:27;;;;;;;5.47;3.00;;;0.10;93.20;;;-1.90;66.73;100468.38;10403572;28;97155;-78
2022/04/04 01:58:31;;;;;;;4.37;2.60;;;0.10;93.20;;;-1.86;66.30;100479.44;10372515;28;96695;-78
2022/04/04 02:03:35;;;;;;;5.57;2.60;;;0.10;93.20;;;-1.86;66.61;100482.06;10397314;28;96661;-78
2022/04/04 02:08:38;;;;;;;5.50;2.70;;;0.10;93.10;;;-1.89;66.05;100476.09;10373376;28;96476;-77
2022/04/04 02:13:42;;;;;;;5.20;2.67;;;0.10;93.00;;;-1.93;66.15;100473.72;10379285;28;98365;-77
2022/04/04 02:18:45;;;;;;;6.07;2.83;;;0.10;93.10;;;-1.97;66.24;100472.25;10362395;28;96661;-77
2022/04/04 02:23:51;;;;;;;5.37;2.93;;;0.10;93.30;;;-2.04;66.78;100476.94;10371874;28;96755;-78
2022/04/04 02:28:54;;;;;;;5.73;3.10;;;0.00;93.50;;;-2.06;66.94;100468.34;10356985;28;96581;-78
2022/04/04 02:33:57;;;;;;;6.33;3.33;;;0.00;93.70;;;-2.08;67.69;100469.34;10396763;28;96522;-78
2022/04/04 02:39:01;;;;;;;8.50;3.17;;;-0.10;94.00;;;-2.13;67.81;100472.19;10371820;28;96495;-78
2022/04/04 02:44:04;;;;;;;5.67;3.17;;;-0.10;94.20;;;-2.18;68.41;100474.19;10370421;28;97820;-78
2022/04/04 02:49:07;;;;;;;6.67;3.57;;;-0.10;95.30;;;-2.23;68.33;100481.41;10375516;28;96455;-77
2022/04/04 02:54:10;;;;;;;6.77;3.63;;;-0.20;94.20;;;-2.28;68.42;100483.38;10372206;28;96766;-77
2022/04/04 02:59:14;;;;;;;8.03;3.50;;;-0.30;94.40;;;-2.34;68.77;100483.72;10386921;28;96556;-78
2022/04/04 03:04:18;;;;;;;6.13;3.30;;;-0.30;95.20;;;-2.36;69.67;100498.56;10400870;28;96597;-78
2022/04/04 03:09:21;;;;;;;6.60;3.87;;;-0.30;96.80;;;-2.42;69.94;100486.72;10369967;28;96511;-78
2022/04/04 03:14:24;;;;;;;7.03;3.73;;;-0.40;96.00;;;-2.47;69.70;100489.53;10368341;28;97856;-78
2022/04/04 03:19:27;;;;;;;13.37;7.90;;;-0.40;96.10;;;-2.47;70.10;100489.53;10354688;28;97161;-78
2022/04/04 03:24:30;;;;;;;7.07;4.10;;;-0.40;96.90;;;-2.51;70.70;100488.03;10349248;28;96596;-77
2022/04/04 03:29:33;;;;;;;6.53;3.50;;;-0.40;97.10;;;-2.55;70.49;100502.09;10413715;28;96651;-77
2022/04/04 03:34:36;;;;;;;6.53;3.37;;;-0.50;97.30;;;-2.57;70.39;100493.56;10391856;28;97043;-78
2022/04/04 03:39:39;;;;;;;5.60;3.30;;;-0.50;97.10;;;-2.60;70.53;100498.88;10386667;28;97354;-78
2022/04/04 03:44:42;;;;;;;6.73;3.23;;;-0.50;97.10;;;-2.62;70.68;100500.75;10377474;28;97195;-78
2022/04/04 03:49:45;;;;;;;7.50;4.00;;;-0.50;97.20;;;-2.68;71.08;100500.22;10381241;28;96689;-78
2022/04/04 03:54:48;;;;;;;9.23;4.13;;;-0.60;97.60;;;-2.75;71.49;100510.06;10379930;28;96491;-78
2022/04/04 03:59:51;;;;;;;9.67;4.30;;;-0.70;97.70;;;-2.81;72.02;100515.59;10377412;28;96413;-78
2022/04/04 04:04:54;;;;;;;8.23;3.53;;;-0.70;98.20;;;-2.90;72.20;100522.06;10361213;28;97365;-78
2022/04/04 04:09:57;;;;;;;6.43;3.33;;;-0.70;98.60;;;-2.97;72.01;100513.72;10378239;28;97848;-78
2022/04/04 04:15:00;;;;;;;4.80;2.87;;;-0.80;98.10;;;-3.00;70.99;100513.00;10377293;28;96619;-78
2022/04/04 04:20:20;;;;;;;5.10;3.03;;;-0.90;97.50;;;-3.03;70.31;100518.38;10412403;28;98702;-78
2022/04/04 04:25:29;;;;;;;9.13;3.83;;;-0.90;96.80;;;-3.02;69.65;100522.66;10359657;28;96596;-78
2022/04/04 04:30:33;;;;;;;7.43;3.10;;;-0.90;96.50;;;-3.04;69.68;100520.13;10379824;28;96585;-78
2022/04/04 04:35:36;;;;;;;5.63;3.40;;;-0.90;97.10;;;-3.04;70.43;100522.72;10383181;28;96590;-78
2022/04/04 04:40:39;;;;;;;9.20;3.70;;;-0.90;96.60;;;-3.03;70.31;100520.97;10376452;28;96576;-78
2022/04/04 04:45:42;;;;;;;5.80;3.37;;;-0.90;97.30;;;-3.04;70.79;100520.13;10416471;28;96453;-78
2022/04/04 04:50:47;;;;;;;11.30;4.80;;;-0.90;98.10;;;-3.02;71.36;100520.88;10391312;28;96531;-79
2022/04/04 04:55:50;;;;;;;11.87;5.77;;;-0.90;97.60;;;-2.94;71.70;100527.47;10375630;28;98402;-78
2022/04/04 05:00:52;;;;;;;13.70;6.23;;;-0.80;98.40;;;-2.84;71.96;100526.97;10396100;28;96610;-78
2022/04/04 05:05:56;;;;;;;19.77;8.43;;;-0.80;98.70;;;-2.71;72.54;100532.41;10359449;28;96722;-78
2022/04/04 05:11:00;;;;;;;20.97;8.43;;;-0.60;98.90;;;-2.59;72.60;100531.78;10373878;28;97702;-78
2022/04/04 05:16:07;;;;;;;17.23;8.40;;;-0.50;99.40;;;-2.46;72.50;100538.09;10364568;28;96619;-78
2022/04/04 05:21:11;;;;;;;11.60;6.53;;;-0.40;99.20;;;-2.34;72.77;100548.78;10370776;28;96607;-78
2022/04/04 05:26:14;;;;;;;12.73;6.90;;;-0.30;99.90;;;-2.20;72.44;100543.75;10405838;28;96925;-78
2022/04/04 05:31:17;;;;;;;12.83;6.70;;;-0.10;99.50;;;-2.06;71.88;100550.84;10376339;28;97320;-78
2022/04/04 05:36:20;;;;;;;15.07;6.57;;;0.00;99.40;;;-1.95;71.99;100540.72;10411183;28;96600;-78
2022/04/04 05:41:23;;;;;;;11.37;6.17;;;0.10;99.60;;;-1.82;71.41;100543.50;10401616;28;96668;-78
2022/04/04 05:46:26;;;;;;;12.07;6.33;;;0.20;98.90;;;-1.70;70.50;100551.50;10373644;28;96599;-78
2022/04/04 05:51:30;;;;;;;9.47;5.53;;;0.40;98.40;;;-1.57;70.22;100559.50;10351174;28;96952;-78
2022/04/04 05:56:52;;;;;;;12.97;5.13;;;0.50;98.10;;;-1.42;70.24;100557.88;10374064;28;96637;-79
2022/04/04 06:01:58;;;;;;;11.43;5.57;;;0.70;98.10;;;-1.24;69.29;100556.03;10373428;28;96807;-77
2022/04/04 06:07:01;;;;;;;10.27;4.60;;;0.80;97.60;;;-1.10;68.13;100558.72;10372508;28;96538;-78
2022/04/04 06:12:05;;;;;;;7.23;4.60;;;1.00;96.20;;;-0.90;67.15;100555.84;10369188;27;96954;-78
2022/04/04 06:17:07;;;;;;;7.43;4.80;;;1.20;96.10;;;-0.69;66.18;100571.22;10389372;28;96509;-78
2022/04/04 06:22:11;;;;;;;13.20;5.27;;;1.40;95.00;;;-0.49;64.98;100570.06;10376068;28;96563;-78
2022/04/04 06:27:17;;;;;;;11.30;5.00;;;1.60;94.70;;;-0.32;63.71;100582.97;10388486;28;97368;-79
2022/04/04 06:32:20;;;;;;;8.37;4.30;;;1.80;93.60;;;-0.21;63.38;100574.53;10371998;28;96629;-79
2022/04/04 06:37:23;;;;;;;9.23;4.60;;;1.90;92.70;;;-0.14;62.98;100575.84;10356620;28;96502;-79
2022/04/04 06:42:26;;;;;;;9.90;4.63;;;2.00;92.10;;;-0.11;62.64;100573.06;10370783;28;97124;-78
2022/04/04 06:47:30;;;;;;;9.57;4.73;;;2.10;91.60;;;0.00;61.84;100578.50;10384093;28;97098;-78
2022/04/04 06:52:33;;;;;;;7.53;4.40;;;2.20;91.10;;;0.13;61.58;100576.84;10378090;28;96636;-79
2022/04/04 06:57:37;;;;;;;8.30;4.00;;;2.30;90.40;;;0.26;61.28;100577.78;10394303;28;96524;-78
2022/04/04 07:02:40;;;;;;;9.47;4.70;;;2.40;90.30;;;0.43;60.25;100581.13;10380063;28;96580;-79
2022/04/04 07:07:43;;;;;;;6.30;4.23;;;2.60;88.60;;;0.55;60.29;100577.78;10372268;28;96581;-79
2022/04/04 07:12:46;;;;;;;11.53;4.80;;;2.70;88.00;;;0.70;59.60;100576.81;10361693;28;96639;-78
2022/04/04 07:17:49;;;;;;;6.00;3.67;;;2.80;87.30;;;0.85;58.64;100567.16;10378848;28;96482;-77
2022/04/04 07:22:52;;;;;;;7.53;3.87;;;3.00;85.50;;;1.03;57.16;100576.47;10377768;28;96499;-77
2022/04/04 07:27:55;;;;;;;8.50;4.33;;;3.20;82.50;;;1.22;55.45;100570.06;10378050;28;98352;-77
2022/04/04 07:33:01;;;;;;;7.67;4.13;;;3.40;80.70;;;1.36;54.58;100566.53;10395496;27;96532;-77
2022/04/04 07:38:04;;;;;;;5.90;3.13;;;3.50;79.30;;;1.53;53.00;100563.66;10357009;28;96666;-78
2022/04/04 07:43:08;;;;;;;5.67;3.40;;;3.70;77.00;;;1.83;52.43;100558.16;10406142;27;98262;-78
2022/04/04 07:48:11;;;;;;;4.80;3.03;;;4.00;76.00;;;2.47;52.25;100556.38;10377872;28;96495;-78
2022/04/04 07:53:14;;;;;;;5.13;2.87;;;4.50;75.50;;;3.46;49.20;100550.97;10373948;28;97462;-78
2022/04/04 07:58:17;;;;;;;4.57;2.80;;;5.00;74.20;;;4.65;48.24;100551.50;10356181;28;96580;-78
2022/04/04 08:03:24;;;;;;;4.37;2.50;;;5.60;71.60;;;5.53;45.84;100551.38;10359771;28;96796;-78
2022/04/04 08:08:29;;;;;;;7.43;3.97;;;6.30;71.40;;;5.80;41.56;100546.44;10377768;28;96535;-79
2022/04/04 08:13:32;;;;;;;4.80;3.33;;;6.80;67.10;;;5.92;40.73;100543.78;10376225;28;97999;-78
2022/04/04 08:18:35;;;;;;;3.93;2.40;;;7.10;61.70;;;6.21;41.18;100541.28;10354595;28;96630;-79
2022/04/04 08:23:38;;;;;;;2.93;2.20;;;7.30;60.50;;;6.49;39.25;100534.47;10352185;28;96462;-78
2022/04/04 08:28:41;;;;;;;3.17;2.23;;;7.40;57.10;;;6.65;38.38;100525.06;10389789;27;96563;-78
2022/04/04 08:33:44;;;;;;;4.47;2.83;;;7.50;57.30;;;6.64;38.26;100528.69;10359182;28;96564;-78
2022/04/04 08:38:47;;;;;;;3.17;2.33;;;7.60;55.80;;;6.67;37.60;100519.66;10375032;28;96593;-78
2022/04/04 08:43:59;;;;;;;5.10;2.30;;;7.60;55.20;;;6.74;39.42;100522.59;10379819;28;96662;-78
2022/04/04 08:49:06;;;;;;;4.07;2.80;;;7.60;55.70;;;6.72;39.04;100504.25;10374134;28;96577;-78
2022/04/04 08:54:10;;;;;;;6.93;3.50;;;7.60;54.20;;;6.60;37.45;100492.97;10375447;28;96606;-78
2022/04/04 08:59:13;;;;;;;4.20;2.57;;;7.50;53.40;;;6.17;37.12;100494.03;10375601;28;96631;-78
2022/04/04 09:04:17;;;;;;;3.70;2.77;;;7.30;52.40;;;5.93;38.66;100495.31;10358428;28;96549;-77
2022/04/04 09:09:25;;;;;;;6.30;3.23;;;7.20;53.20;;;5.70;38.63;100492.81;10374343;28;96617;-78
2022/04/04 09:14:28;;;;;;;4.97;2.63;;;7.20;53.20;;;5.36;38.56;100484.25;10368648;28;96574;-78
2022/04/04 09:19:32;;;;;;;6.57;3.10;;;7.10;52.50;;;5.21;39.50;100475.78;10372910;28;96594;-78
2022/04/04 09:24:42;;;;;;;5.33;3.37;;;7.10;53.00;;;5.41;41.39;100471.53;10374256;28;96484;-77
2022/04/04 09:29:46;;;;;;;6.90;3.77;;;7.20;54.50;;;5.79;40.64;100473.56;10373605;27;97613;-78
2022/04/04 09:35:02;;;;;;;8.53;3.63;;;7.40;54.80;;;6.55;40.78;100449.47;10374370;28;96606;-77
2022/04/04 09:40:08;;;;;;;6.57;3.63;;;7.80;54.50;;;7.30;38.71;100427.66;10371473;28;98342;-78
2022/04/04 09:45:17;;;;;;;5.45;3.15;;;8.40;55.00;;;7.83;37.43;100440.34;10358191;28;96576;-77
2022/04/04 09:50:44;;;;;;;4.43;2.70;;;8.90;53.90;;;8.32;37.02;100425.06;10391040;27;96501;-78
2022/04/04 09:55:56;;;;;;;6.93;3.20;;;9.40;52.90;;;9.13;37.08;100417.16;10372741;28;96625;-78
2022/04/04 10:01:00;;;;;;;3.72;3.00;;;10.00;51.90;;;9.63;34.25;100405.91;10372627;28;97619;-78
2022/04/04 10:06:10;;;;;;;5.47;3.50;;;10.60;51.20;;;10.05;33.98;100395.34;10373298;28;98524;-78
2022/04/04 10:11:13;;;;;;;2.85;2.03;;;11.10;51.20;;;10.17;32.65;100382.59;10377092;28;96708;-78
2022/04/04 10:16:16;;;;;;;4.17;2.70;;;11.30;47.80;;;9.62;32.69;100377.72;10375156;28;96555;-78
2022/04/04 10:21:20;;;;;;;4.43;2.45;;;11.20;46.70;;;9.88;34.30;100373.19;10354542;28;96683;-78
2022/04/04 10:26:31;;;;;;;3.58;2.45;;;11.40;47.90;;;10.19;33.24;100365.53;10372157;28;96581;-78
2022/04/04 10:31:49;;;;;;;4.35;2.72;;;11.60;46.20;;;10.56;33.45;100361.66;10355857;28;96948;-78
2022/04/04 10:37:01;;;;;;;3.20;2.58;;;12.00;47.60;;;11.16;33.17;100345.41;10372812;28;96558;-78
2022/04/04 10:42:37;;;;;;;6.63;2.67;;;12.40;47.30;;;11.42;32.49;100331.03;10356068;28;96779;-79
2022/04/04 10:47:45;;;;;;;5.55;2.80;;;12.80;46.00;;;11.67;33.20;100319.31;10371960;28;96509;-78
2022/04/04 10:52:49;;;;;;;5.05;2.70;;;13.00;47.20;;;11.92;30.15;100316.59;10354892;28;96628;-78
2022/04/04 10:58:10;;;;;;;3.45;2.20;;;13.30;45.70;;;12.24;29.58;100299.63;10388618;28;96544;-78
2022/04/04 11:03:13;;;;;;;3.65;2.22;;;13.70;44.60;;;12.52;28.93;100303.41;10329492;28;96766;-78
2022/04/04 11:08:22;;;;;;;3.50;2.55;;;14.00;43.20;;;12.27;28.27;100304.56;10329389;28;96575;-78
2022/04/04 11:13:25;;;;;;;3.70;2.50;;;13.80;42.10;;;11.40;29.15;100301.13;10329030;28;96666;-78
2022/04/04 11:18:52;;;;;;;3.60;2.65;;;13.20;41.40;;;11.56;30.94;100292.25;10330361;28;96625;-78
2022/04/04 11:23:56;;;;;;;5.60;3.92;;;13.10;43.80;;;11.10;31.78;100295.53;10345875;28;96631;-78
2022/04/04 11:28:59;;;;;;;4.93;3.40;;;12.80;43.40;;;10.07;31.63;100296.94;10345603;28;96500;-78
2022/04/04 11:34:02;;;;;;;4.07;3.40;;;12.10;42.60;;;9.34;34.06;100289.50;10348230;28;96569;-77
2022/04/04 11:39:09;;;;;;;5.53;3.63;;;11.30;44.80;;;8.94;35.92;100288.28;10352615;28;96533;-78
2022/04/04 11:44:25;;;;;;;6.73;4.83;;;10.80;46.60;;;8.37;36.90;100279.03;10352334;28;96473;-77
2022/04/04 11:49:40;;;;;;;6.53;4.37;;;10.30;47.20;;;7.84;39.14;100285.06;10336931;28;96507;-77
2022/04/04 11:54:50;;;;;;;6.03;4.17;;;9.80;50.50;;;7.49;39.66;100287.47;10352029;28;96755;-77
2022/04/04 11:59:56;;;;;;;6.60;5.05;;;9.40;50.60;;;7.16;40.72;100277.44;10352894;28;96829;-77
2022/04/04 12:05:00;;;;;;;6.97;4.70;;;9.00;51.70;;;6.90;41.60;100272.78;10375779;28;97113;-77
2022/04/04 12:10:04;;;;;;;7.60;4.57;;;8.80;52.00;;;6.92;43.72;100262.06;10357750;28;96627;-77
2022/04/04 12:15:07;;;;;;;6.37;4.43;;;8.70;54.40;;;6.88;42.80;100242.19;10391475;28;96571;-77
2022/04/04 12:20:11;;;;;;;5.07;3.97;;;8.70;53.80;;;6.86;43.47;100239.69;10370864;28;96731;-77
2022/04/04 12:25:14;;;;;;;6.43;4.17;;;8.60;54.30;;;7.26;43.44;100233.31;10393424;28;97299;-78
2022/04/04 12:30:33;;;;;;;5.90;4.20;;;9.00;54.80;;;7.42;42.85;100224.75;10392523;28;97846;-77
2022/04/04 12:35:48;;;;;;;7.30;4.37;;;9.20;54.20;;;7.68;42.59;100203.75;10375562;28;96669;-77
2022/04/04 12:41:07;;;;;;;9.67;5.90;;;9.40;54.20;;;7.77;42.67;100192.25;10364653;28;96534;-77
2022/04/04 12:46:23;;;;;;;7.97;5.47;;;9.50;53.90;;;7.58;42.44;100200.31;10374358;28;98270;-77
2022/04/04 12:51:34;;;;;;;18.27;11.07;;;9.50;53.30;;;7.63;43.19;100179.53;10377490;28;96941;-77
2022/04/04 12:56:49;;;;;;;42.57;17.53;;;9.40;53.70;;;7.73;41.69;100180.28;10337626;28;96726;-77
2022/04/04 13:02:10;;;;;;;8.70;5.30;;;9.60;53.50;;;7.62;42.51;100167.31;10335383;28;96754;-78
2022/04/04 13:07:17;;;;;;;8.13;4.43;;;9.40;53.70;;;7.52;42.58;100170.00;10374591;28;96572;-77
2022/04/04 13:12:31;;;;;;;9.17;4.23;;;9.40;53.40;;;7.44;42.60;100165.47;10374447;28;96482;-77
2022/04/04 13:17:40;;;;;;;43.67;12.50;;;9.30;53.70;;;7.38;42.42;100155.50;10391251;28;97626;-77
2022/04/04 13:22:44;;;;;;;46.93;17.50;;;9.30;53.50;;;7.15;43.26;100148.94;10372347;28;96550;-77
2022/04/04 13:27:47;;;;;;;41.63;20.00;;;9.00;53.70;;;7.14;44.17;100150.75;10374418;28;96570;-77
2022/04/04 13:32:50;;;;;;;8.93;5.70;;;9.00;54.70;;;7.05;43.19;100138.41;10390389;28;96400;-77
2022/04/04 13:37:53;;;;;;;11.33;6.83;;;8.90;54.30;;;7.00;44.21;100132.72;10347339;28;96947;-76
2022/04/04 13:42:56;;;;;;;8.03;5.03;;;8.80;54.90;;;6.98;44.10;100127.59;10386002;28;97703;-78
2022/04/04 13:47:59;;;;;;;9.70;6.23;;;8.90;55.40;;;6.75;45.18;100123.66;10343058;28;97833;-77
2022/04/04 13:53:02;;;;;;;6.63;5.07;;;8.60;55.90;;;6.79;44.98;100121.56;10384904;28;97418;-77
2022/04/04 13:58:06;;;;;;;9.10;5.53;;;8.60;55.80;;;6.91;45.14;100110.66;10344908;28;98425;-78
2022/04/04 14:03:10;;;;;;;11.10;7.37;;;8.70;56.00;;;6.91;45.08;100107.19;10350529;28;96960;-76
2022/04/04 14:08:13;;;;;;;7.23;4.80;;;8.70;56.20;;;6.86;45.07;100099.69;10388646;27;96554;-76
2022/04/04 14:13:16;;;;;;;8.97;5.70;;;8.70;55.90;;;6.71;45.37;100093.22;10372580;28;96521;-77
2022/04/04 14:18:21;;;;;;;7.33;3.97;;;8.60;56.20;;;6.48;43.99;100090.13;10368074;28;96701;-76
2022/04/04 14:23:25;;;;;;;25.60;13.57;;;8.40;55.70;;;6.28;45.71;100086.72;10372253;28;97886;-77
2022/04/04 14:28:28;;;;;;;25.47;16.20;;;8.20;56.10;;;6.19;46.74;100078.84;10371862;28;96496;-77
2022/04/04 14:33:32;;;;;;;17.10;8.57;;;8.10;57.10;;;6.13;47.31;100081.06;10383612;28;98313;-77
2022/04/04 14:38:38;;;;;;;12.90;6.90;;;8.00;57.50;;;6.08;46.64;100062.19;10328435;28;96567;-77
2022/04/04 14:43:41;;;;;;;8.97;5.33;;;8.00;57.80;;;6.08;47.67;100059.53;10350517;28;96905;-77
2022/04/04 14:48:44;;;;;;;7.57;4.97;;;7.90;58.00;;;6.08;47.79;100054.28;10372364;28;96968;-77
2022/04/04 14:53:47;;;;;;;10.53;5.47;;;8.00;58.30;;;6.02;47.80;100051.38;10338833;28;96592;-77
2022/04/04 14:58:50;;;;;;;9.07;6.33;;;7.90;58.30;;;5.89;48.96;100044.56;10371332;28;98147;-77
2022/04/04 15:03:53;;;;;;;12.37;7.00;;;7.80;59.70;;;5.80;49.89;100031.38;10371817;28;96536;-77
2022/04/04 15:08:56;;;;;;;8.83;5.20;;;7.70;59.90;;;5.82;50.65;100027.66;10378079;28;96624;-77
2022/04/04 15:13:59;;;;;;;7.87;4.90;;;7.70;61.10;;;5.83;49.81;100017.94;10359428;28;98728;-77
2022/04/04 15:19:04;;;;;;;6.83;4.93;;;7.70;60.20;;;5.82;49.90;100016.25;10378524;28;96514;-77
2022/04/04 15:24:06;;;;;;;8.70;5.40;;;7.70;60.40;;;5.78;50.29;100009.59;10377534;28;96561;-77
2022/04/04 15:29:18;;;;;;;8.10;5.27;;;7.60;60.60;;;5.68;50.39;100008.78;10360782;28;96542;-78
2022/04/04 15:34:22;;;;;;;9.30;6.37;;;7.60;61.00;;;5.56;51.26;100001.03;10376734;28;96843;-77
2022/04/04 15:39:28;;;;;;;15.77;8.53;;;7.50;61.60;;;5.43;51.64;99999.66;10378654;28;96387;-77
2022/04/04 15:44:33;;;;;;;15.30;7.90;;;7.40;62.00;;;5.35;52.49;99998.56;10377318;28;96571;-78
2022/04/04 15:49:38;;;;;;;17.73;9.47;;;7.30;62.90;;;5.27;52.69;99995.75;10346541;28;96513;-77
2022/04/04 15:54:41;;;;;;;14.03;7.70;;;7.20;63.00;;;5.21;53.02;99984.94;10376602;28;96409;-77
2022/04/04 15:59:44;;;;;;;19.00;9.50;;;7.10;63.50;;;5.17;53.30;99979.13;10376228;28;96589;-77
2022/04/04 16:04:47;;;;;;;11.00;7.47;;;7.10;63.70;;;5.14;53.95;99966.22;10362692;27;96578;-77
2022/04/04 16:09:50;;;;;;;15.40;7.93;;;7.00;64.10;;;5.15;53.98;99961.78;10361640;28;96530;-77
2022/04/04 16:14:54;;;;;;;15.87;8.47;;;7.00;64.30;;;5.17;54.62;99955.44;10368105;28;96593;-77
2022/04/04 16:20:17;;;;;;;9.63;5.90;;;7.10;65.00;;;5.17;54.25;99946.69;10340563;28;96485;-77
2022/04/04 16:25:20;;;;;;;14.93;7.53;;;7.10;64.80;;;5.18;55.03;99943.09;10375883;28;96671;-77
2022/04/04 16:30:23;;;;;;;11.53;7.53;;;7.10;65.50;;;5.18;55.67;99929.91;10358230;27;96426;-77
2022/04/04 16:35:26;;;;;;;6.73;5.10;;;7.10;65.80;;;5.15;54.77;99925.75;10399384;28;96368;-77
2022/04/04 16:40:29;;;;;;;12.93;6.17;;;7.10;65.40;;;5.09;54.54;99916.59;10416904;28;96434;-76
2022/04/04 16:45:33;;;;;;;9.57;6.03;;;7.10;65.40;;;5.02;54.42;99915.50;10396100;28;96661;-77
2022/04/04 16:50:36;;;;;;;8.87;6.20;;;7.00;65.50;;;4.97;55.25;99903.72;10377972;28;96964;-77
2022/04/04 16:55:39;;;;;;;13.27;8.80;;;6.90;66.00;;;4.91;55.25;99893.75;10382854;28;96800;-76
2022/04/04 17:00:42;;;;;;;9.03;5.77;;;6.90;66.20;;;4.81;56.03;99884.06;10375370;28;96574;-76
2022/04/04 17:05:45;;;;;;;8.67;5.03;;;6.80;66.50;;;4.72;56.12;99881.41;10374487;28;96778;-77
2022/04/04 17:10:49;;;;;;;15.30;8.20;;;6.70;66.70;;;4.62;56.91;99883.19;10363877;28;96524;-77
2022/04/04 17:15:52;;;;;;;12.50;6.40;;;6.60;67.20;;;4.49;57.61;99888.72;10395790;27;96552;-77
2022/04/04 17:20:55;;;;;;;15.13;7.23;;;6.50;67.70;;;4.31;57.88;99875.41;10363989;28;96462;-76
2022/04/04 17:25:58;;;;;;;11.93;6.57;;;6.40;68.30;;;4.15;59.06;99880.38;10375404;28;96431;-76
2022/04/04 17:31:01;;;;;;;16.50;8.20;;;6.30;68.90;;;3.93;59.64;99874.34;10384362;28;97043;-77
2022/04/04 17:36:05;;;;;;;16.77;9.07;;;6.10;69.30;;;3.74;60.10;99866.38;10415836;28;97568;-76
2022/04/04 17:41:09;;;;;;;11.20;7.73;;;5.90;70.30;;;3.56;60.54;99871.44;10392368;28;97118;-77
2022/04/04 17:46:14;;;;;;;9.87;5.37;;;5.70;70.30;;;3.35;62.54;99860.09;10374367;28;97044;-77
2022/04/04 17:51:18;;;;;;;9.33;5.17;;;5.60;71.70;;;3.12;63.40;99859.41;10376529;28;96496;-77
2022/04/04 17:56:21;;;;;;;12.77;7.23;;;5.40;72.60;;;2.90;63.65;99861.22;10390417;28;96512;-77
2022/04/04 18:01:24;;;;;;;11.47;6.83;;;5.20;73.10;;;2.71;64.32;99858.44;10374980;28;97810;-77
2022/04/04 18:06:27;;;;;;;16.67;8.93;;;5.00;73.80;;;2.55;65.78;99850.97;10384027;28;96728;-77
2022/04/04 18:11:32;;;;;;;15.93;8.97;;;4.90;75.30;;;2.40;66.51;99863.56;10382269;28;96699;-77
2022/04/04 18:16:35;;;;;;;15.30;9.43;;;4.70;76.50;;;2.26;67.24;99858.59;10379927;28;97023;-77
2022/04/04 18:21:39;;;;;;;11.87;7.60;;;4.60;78.50;;;2.12;67.65;99848.38;10351017;28;96680;-77
2022/04/04 18:26:42;;;;;;;15.57;8.37;;;4.40;78.80;;;1.98;68.05;99854.72;10400889;27;96467;-77
2022/04/04 18:31:46;;;;;;;13.83;7.73;;;4.30;81.30;;;1.84;68.95;99847.94;10350195;28;96862;-77
2022/04/04 18:36:49;;;;;;;25.03;11.10;;;4.20;82.30;;;1.73;69.47;99841.88;10391002;28;96581;-77
2022/04/04 18:41:54;;;;;;;19.93;11.13;;;4.10;83.50;;;1.61;70.19;99848.91;10396854;28;96533;-77
2022/04/04 18:46:57;;;;;;;17.83;9.67;;;3.90;86.40;;;1.48;71.25;99835.91;10379171;28;96570;-77
2022/04/04 18:52:00;;;;;;;22.90;12.13;;;3.80;88.50;;;1.37;71.73;99837.69;10396823;28;96499;-77
2022/04/04 18:57:05;;;;;;;25.73;12.37;;;3.70;90.50;;;1.25;72.03;99821.97;10382184;28;98549;-77
2022/04/04 19:02:09;;;;;;;29.00;13.70;;;3.60;91.30;;;1.15;72.92;99825.44;10388740;28;97063;-77
2022/04/04 19:07:15;;;;;;;27.50;13.07;;;3.50;92.60;;;1.01;73.40;99818.63;10403967;28;96871;-77
2022/04/04 19:12:18;;;;;;;20.00;10.53;;;3.30;94.10;;;0.88;73.83;99808.25;10409699;28;96584;-77
2022/04/04 19:17:21;;;;;;;20.63;9.60;;;3.20;94.80;;;0.77;75.04;99806.44;10397075;28;96762;-78
2022/04/04 19:22:24;;;;;;;17.00;8.67;;;3.10;96.20;;;0.65;75.35;99807.34;10419883;27;97563;-77
2022/04/04 19:27:28;;;;;;;22.53;9.90;;;3.00;97.70;;;0.52;76.27;99789.13;10409656;28;96586;-77
2022/04/04 19:32:32;;;;;;;16.33;8.17;;;2.80;99.00;;;0.40;76.71;99784.81;10380949;28;96990;-77
2022/04/04 19:37:35;;;;;;;19.20;9.27;;;2.70;99.10;;;0.29;77.37;99787.38;10392069;28;96932;-77
2022/04/04 19:42:40;;;;;;;21.83;9.23;;;2.60;99.90;;;0.18;78.05;99779.47;10406284;28;96636;-78
2022/04/04 19:47:43;;;;;;;19.67;10.20;;;2.50;99.90;;;0.07;78.36;99779.44;10341347;28;96515;-77
2022/04/04 19:52:46;;;;;;;20.70;10.30;;;2.40;99.90;;;-0.04;78.93;99777.59;10377469;28;96834;-77
2022/04/04 19:57:49;;;;;;;23.90;12.83;;;2.30;99.90;;;-0.13;79.41;99767.81;10374381;28;96652;-77
2022/04/04 20:02:54;;;;;;;29.33;14.20;;;2.20;99.90;;;-0.20;80.09;99753.53;10379284;28;96576;-78
2022/04/04 20:07:57;;;;;;;24.03;13.97;;;2.10;99.90;;;-0.25;80.62;99740.78;10360428;28;96816;-77
2022/04/04 20:13:00;;;;;;;22.13;12.53;;;2.00;99.90;;;-0.10;81.66;99738.88;10376769;28;96513;-77
2022/04/04 20:18:08;;;;;;;22.23;12.93;;;2.10;99.90;;;0.07;81.50;99741.09;10354796;28;96904;-77
2022/04/04 20:23:12;;;;;;;23.90;12.67;;;2.20;99.90;;;0.17;81.14;99731.63;10394663;28;96904;-77
2022/04/04 20:28:16;;;;;;;27.63;12.17;;;2.30;99.90;;;0.44;81.43;99726.13;10381163;28;96516;-77
2022/04/04 20:33:19;;;;;;;25.47;10.83;;;2.50;99.90;;;0.82;79.68;99703.25;10395493;28;96624;-77
2022/04/04 20:38:22;;;;;;;23.77;9.90;;;2.70;99.90;;;1.20;78.88;99706.34;10417751;28;96825;-78
2022/04/04 20:43:27;;;;;;;24.20;11.40;;;3.10;99.90;;;1.57;76.92;99687.72;10355161;28;96548;-77
2022/04/04 20:48:30;;;;;;;21.17;11.17;;;3.40;99.90;;;1.82;75.65;99679.56;10364492;28;96669;-77
2022/04/04 20:53:33;;;;;;;21.63;9.63;;;3.70;99.90;;;2.10;74.24;99678.13;10405977;28;96769;-77
2022/04/04 20:58:36;;;;;;;15.37;9.10;;;3.90;99.90;;;2.40;72.77;99669.50;10389527;28;96724;-78
2022/04/04 21:03:39;;;;;;;14.57;7.87;;;4.30;99.90;;;2.67;71.07;99665.50;10403062;28;97415;-77
2022/04/04 21:08:42;;;;;;;13.87;7.57;;;4.50;99.70;;;2.86;69.62;99655.09;10411422;27;96958;-78